Time;durP1;ratioP1;P1;durP2;ratioP2;P2;SDS_P1;SDS_P2;PMS_P1;PMS_P2;Temp;Humidity;BMP_temperature;BMP_pressure;BME280_temperature;BME280_humidity;BME280_pressure;Samples;Min_cycle;Max_cycle;Signal;HPM_P1;HPM_P2
2020/12/04 00:00:02;;;;;;;13.63;10.50;;;5.10;99.90;;;3.43;100.00;98252.22;5012788;28;20203;-81
2020/12/04 00:02:48;;;;;;;13.63;9.87;;;5.10;99.90;;;3.47;100.00;98247.78;5030795;28;20230;-80
2020/12/04 00:05:33;;;;;;;14.30;10.03;;;5.10;99.90;;;3.53;100.00;98249.28;5025125;28;20211;-79
2020/12/04 00:08:18;;;;;;;15.37;8.53;;;5.10;99.90;;;3.56;100.00;98251.72;5024914;28;20216;-80
2020/12/04 00:11:03;;;;;;;14.70;8.73;;;5.10;99.90;;;3.55;100.00;98242.41;5029350;28;20220;-79
2020/12/04 00:13:48;;;;;;;12.87;9.27;;;5.10;99.90;;;3.60;100.00;98238.78;5032416;28;20316;-76
2020/12/04 00:16:34;;;;;;;13.80;9.70;;;5.10;99.90;;;3.62;100.00;98229.31;5032340;28;20277;-79
2020/12/04 00:19:20;;;;;;;13.83;8.47;;;5.10;99.90;;;3.63;100.00;98232.72;5026084;28;20264;-76
2020/12/04 00:22:05;;;;;;;14.10;10.03;;;5.10;99.90;;;3.60;100.00;98226.00;5030250;28;20208;-79
2020/12/04 00:24:50;;;;;;;12.33;8.30;;;5.20;99.90;;;3.65;100.00;98220.72;5027126;28;20300;-77
2020/12/04 00:27:36;;;;;;;12.87;9.67;;;5.20;99.90;;;3.63;100.00;98223.34;5025565;28;20220;-80
2020/12/04 00:30:21;;;;;;;12.20;10.33;;;5.20;99.90;;;3.62;100.00;98218.28;5013929;28;20320;-78
2020/12/04 00:33:06;;;;;;;14.27;9.43;;;5.20;99.90;;;3.54;100.00;98210.06;5023647;28;20235;-80
2020/12/04 00:35:52;;;;;;;11.33;8.60;;;5.20;99.90;;;3.55;100.00;98207.44;5011956;28;20283;-79
2020/12/04 00:38:37;;;;;;;13.60;8.63;;;5.20;99.90;;;3.41;100.00;98208.00;5019571;28;20267;-80
2020/12/04 00:41:24;;;;;;;15.10;9.33;;;5.20;99.90;;;3.39;100.00;98191.88;5021355;28;20211;-78
2020/12/04 00:44:10;;;;;;;13.67;8.93;;;5.20;99.90;;;3.43;100.00;98213.06;5027529;28;20263;-78
2020/12/04 00:46:55;;;;;;;15.13;9.10;;;5.20;99.90;;;3.39;100.00;98188.50;5031597;28;20255;-78
2020/12/04 00:49:40;;;;;;;12.40;9.83;;;5.20;99.90;;;3.44;100.00;98195.09;5031253;28;20216;-78
2020/12/04 00:52:28;;;;;;;13.43;8.63;;;5.20;99.90;;;3.46;100.00;98177.16;5029276;28;20243;-78
2020/12/04 00:55:15;;;;;;;14.30;9.53;;;5.20;99.90;;;3.44;100.00;98167.00;5029963;28;20269;-77
2020/12/04 00:58:01;;;;;;;12.53;8.87;;;5.20;99.90;;;3.47;100.00;98171.13;5030453;28;20247;-81
2020/12/04 01:00:46;;;;;;;13.63;9.37;;;5.20;99.90;;;3.57;100.00;98169.88;5025732;28;20200;-79
2020/12/04 01:03:31;;;;;;;12.50;8.83;;;5.20;99.90;;;3.48;100.00;98160.88;5026879;28;20263;-80
2020/12/04 01:06:16;;;;;;;12.63;9.47;;;5.20;99.90;;;3.50;100.00;98156.53;5020559;28;20558;-79
2020/12/04 01:09:04;;;;;;;13.40;8.87;;;5.20;99.90;;;3.53;100.00;98153.03;5019509;28;20784;-80
2020/12/04 01:11:51;;;;;;;15.30;9.77;;;5.20;99.90;;;3.54;100.00;98143.63;5020612;28;20208;-80
2020/12/04 01:14:36;;;;;;;13.90;10.50;;;5.20;99.90;;;3.49;100.00;98152.28;5019111;28;20302;-78
2020/12/04 01:17:21;;;;;;;13.63;9.33;;;5.20;99.90;;;3.55;100.00;98158.06;5019705;28;20691;-79
2020/12/04 01:20:07;;;;;;;13.17;9.87;;;5.20;99.90;;;3.56;100.00;98132.44;5020287;28;20289;-81
2020/12/04 01:22:52;;;;;;;12.23;8.43;;;5.20;99.90;;;3.47;100.00;98145.56;5021113;28;20236;-79
2020/12/04 01:25:38;;;;;;;14.40;9.50;;;5.20;99.90;;;3.43;100.00;98132.09;5008602;28;20199;-79
2020/12/04 01:28:23;;;;;;;13.13;10.43;;;5.20;99.90;;;3.45;100.00;98132.03;5019904;28;20220;-80
2020/12/04 01:31:09;;;;;;;13.70;9.60;;;5.20;99.90;;;3.43;100.00;98126.16;5020602;28;20255;-79
2020/12/04 01:33:54;;;;;;;12.63;9.40;;;5.20;99.90;;;3.33;100.00;98121.41;5019168;28;20334;-80
2020/12/04 01:36:39;;;;;;;11.73;8.03;;;5.20;99.90;;;3.34;100.00;98119.69;5017997;28;20635;-80
2020/12/04 01:39:25;;;;;;;13.67;8.67;;;5.20;99.90;;;3.29;100.00;98114.78;5018286;28;20220;-79
2020/12/04 01:42:11;;;;;;;12.23;8.70;;;5.20;99.90;;;3.28;100.00;98099.50;5018443;28;20231;-78
2020/12/04 01:44:56;;;;;;;12.87;8.10;;;5.20;99.90;;;3.31;100.00;98096.84;5018397;28;20267;-80
2020/12/04 01:47:41;;;;;;;11.73;9.07;;;5.20;99.90;;;3.34;100.00;98089.03;5025655;28;20288;-75
2020/12/04 01:50:26;;;;;;;13.27;9.80;;;5.20;99.90;;;3.42;100.00;98089.53;5015666;28;20232;-78
2020/12/04 01:53:12;;;;;;;14.00;9.40;;;5.20;99.90;;;3.41;100.00;98090.47;5023423;28;20310;-79
2020/12/04 01:55:57;;;;;;;12.13;9.07;;;5.20;99.90;;;3.32;100.00;98090.81;5020888;28;20652;-77
2020/12/04 01:58:43;;;;;;;12.33;9.37;;;5.20;99.90;;;3.22;100.00;98082.69;5022346;28;20273;-79
2020/12/04 02:01:29;;;;;;;13.37;9.67;;;5.20;99.90;;;3.16;100.00;98073.56;5020488;28;20208;-79
2020/12/04 02:04:15;;;;;;;11.60;8.70;;;5.20;99.90;;;3.14;100.00;98071.94;5021132;28;20215;-79
2020/12/04 02:07:07;;;;;;;11.43;8.50;;;5.20;99.90;;;3.14;100.00;98074.50;5019888;28;20207;-80
2020/12/04 02:10:00;;;;;;;12.27;9.20;;;5.10;99.90;;;3.14;100.00;98057.47;5018431;28;20273;-78
2020/12/04 02:12:48;;;;;;;12.47;9.63;;;5.20;99.90;;;3.19;100.00;98062.41;5019078;28;20592;-79
2020/12/04 02:15:34;;;;;;;13.33;9.67;;;5.10;99.90;;;3.19;100.00;98041.97;5008523;28;20208;-78
2020/12/04 02:18:19;;;;;;;12.77;9.40;;;5.10;99.90;;;3.16;100.00;98049.75;5019361;28;20211;-80
2020/12/04 02:21:06;;;;;;;13.37;10.53;;;5.10;99.90;;;3.16;100.00;98042.09;5019443;28;20256;-80
2020/12/04 02:23:52;;;;;;;14.17;9.17;;;5.10;99.90;;;3.13;100.00;98044.72;5007812;28;20758;-80
2020/12/04 02:26:37;;;;;;;12.67;8.40;;;5.10;99.90;;;3.08;100.00;98028.78;5019163;28;20220;-80
2020/12/04 02:29:23;;;;;;;13.83;9.47;;;5.10;99.90;;;3.05;100.00;98029.72;5019215;28;20259;-77
2020/12/04 02:32:14;;;;;;;12.80;8.60;;;5.10;99.90;;;3.03;100.00;98044.28;5018335;28;20235;-79
2020/12/04 02:34:59;;;;;;;13.10;8.10;;;5.10;99.90;;;3.01;100.00;98009.50;5018727;28;20203;-78
2020/12/04 02:37:45;;;;;;;10.93;7.97;;;5.10;99.90;;;3.01;100.00;98010.31;5020828;28;20204;-78
2020/12/04 02:40:30;;;;;;;14.27;9.27;;;5.10;99.90;;;3.03;100.00;98000.88;5019633;28;20196;-78
2020/12/04 02:43:15;;;;;;;11.50;8.83;;;5.10;99.90;;;3.04;100.00;97984.69;5018277;28;20592;-78
2020/12/04 02:46:00;;;;;;;12.87;9.30;;;5.10;99.90;;;3.05;100.00;97977.84;5015257;28;20257;-78
2020/12/04 02:48:46;;;;;;;11.13;8.03;;;5.10;99.90;;;3.07;100.00;97976.88;5022130;28;20235;-79
2020/12/04 02:51:31;;;;;;;11.30;8.57;;;5.10;99.90;;;3.10;100.00;97976.75;5019111;28;20212;-78
2020/12/04 02:54:17;;;;;;;10.03;7.67;;;5.10;99.90;;;3.13;100.00;97966.41;5015619;28;20204;-79
2020/12/04 02:57:03;;;;;;;10.80;8.03;;;5.10;99.90;;;3.14;100.00;97955.31;5014470;28;20215;-79
2020/12/04 02:59:48;;;;;;;10.77;7.57;;;5.10;99.90;;;3.19;100.00;97954.25;5018794;28;20615;-79
2020/12/04 03:02:33;;;;;;;10.50;7.23;;;5.00;99.90;;;3.18;100.00;97939.84;5019418;28;20231;-79
2020/12/04 03:05:19;;;;;;;9.80;7.50;;;5.10;99.90;;;3.14;100.00;97939.97;5018169;28;20285;-78
2020/12/04 03:08:04;;;;;;;10.83;7.50;;;5.00;99.90;;;3.14;100.00;97941.69;5017136;28;20270;-78
2020/12/04 03:10:50;;;;;;;10.47;7.13;;;5.10;99.90;;;3.15;100.00;97949.28;5017661;28;20235;-79
2020/12/04 03:13:35;;;;;;;9.97;7.00;;;5.00;99.90;;;3.15;100.00;97918.63;5017437;28;20227;-80
2020/12/04 03:16:23;;;;;;;9.53;6.53;;;5.00;99.90;;;3.14;100.00;97921.25;5017476;28;20255;-77
2020/12/04 03:19:09;;;;;;;8.90;6.83;;;5.10;99.90;;;3.15;100.00;97925.47;5017645;28;20203;-78
2020/12/04 03:21:54;;;;;;;11.40;6.57;;;5.10;99.90;;;3.16;100.00;97914.38;5019345;28;20675;-79
2020/12/04 03:24:39;;;;;;;10.20;7.77;;;5.00;99.90;;;3.17;100.00;97928.78;5017420;28;20195;-78
2020/12/04 03:27:25;;;;;;;9.90;6.70;;;5.10;99.90;;;3.23;100.00;97914.94;5019849;28;20642;-78
2020/12/04 03:30:10;;;;;;;10.17;6.67;;;5.10;99.90;;;3.27;100.00;97911.34;5018279;28;20284;-79
2020/12/04 03:32:56;;;;;;;8.77;5.80;;;5.10;99.90;;;3.36;100.00;97916.06;5018528;28;20247;-77
2020/12/04 03:35:41;;;;;;;8.63;6.50;;;5.10;99.90;;;3.41;100.00;97921.81;5015194;28;20208;-77
2020/12/04 03:38:26;;;;;;;10.07;7.20;;;5.10;99.90;;;3.45;100.00;97920.75;5005526;28;20200;-79
2020/12/04 03:41:11;;;;;;;8.40;6.73;;;5.10;99.90;;;3.57;100.00;97911.72;5017942;28;20263;-78
2020/12/04 03:43:57;;;;;;;10.00;6.43;;;5.10;99.90;;;3.68;100.00;97913.81;5019976;28;20270;-81
2020/12/04 03:46:44;;;;;;;8.87;6.60;;;5.10;99.90;;;3.71;100.00;97910.31;5018188;28;20280;-79
2020/12/04 03:49:28;;;;;;;8.57;6.23;;;5.10;99.90;;;3.74;100.00;97926.31;5018012;28;20228;-79
2020/12/04 03:52:19;;;;;;;8.27;5.50;;;5.10;99.90;;;3.67;100.00;97924.94;5008485;28;20568;-79
2020/12/04 03:55:06;;;;;;;8.80;6.73;;;5.10;99.90;;;3.62;100.00;97934.56;5014147;28;20204;-79
2020/12/04 03:57:50;;;;;;;8.90;6.37;;;5.10;99.90;;;3.55;100.00;97915.28;5015724;28;20204;-79
2020/12/04 04:00:39;;;;;;;8.73;6.50;;;5.10;99.90;;;3.39;100.00;97926.16;5011193;28;20232;-75
2020/12/04 04:03:24;;;;;;;9.00;5.60;;;5.10;99.90;;;3.39;100.00;97915.91;5018440;28;20267;-78
2020/12/04 04:06:09;;;;;;;7.77;5.37;;;5.20;99.90;;;3.28;100.00;97913.84;5015781;28;20719;-79
2020/12/04 04:08:54;;;;;;;8.33;5.43;;;5.20;99.90;;;3.23;100.00;97904.72;5017766;28;20213;-76
2020/12/04 04:11:43;;;;;;;7.57;5.87;;;5.20;99.90;;;3.26;100.00;97894.34;5039417;28;20187;-76
2020/12/04 04:14:28;;;;;;;8.53;6.13;;;5.20;99.90;;;3.38;100.00;97900.66;5019793;28;20280;-77
2020/12/04 04:17:18;;;;;;;8.23;5.30;;;5.20;99.90;;;3.39;100.00;97905.69;5026486;28;20265;-79
2020/12/04 04:20:04;;;;;;;8.60;6.30;;;5.20;99.90;;;3.46;100.00;97911.38;5031699;28;20269;-78
2020/12/04 04:22:55;;;;;;;9.93;6.10;;;5.20;99.90;;;3.59;100.00;97893.75;5030144;28;20235;-77
2020/12/04 04:25:40;;;;;;;7.37;5.50;;;5.30;99.90;;;3.64;100.00;97895.22;5026643;28;20248;-77
2020/12/04 04:28:26;;;;;;;7.67;5.00;;;5.30;99.90;;;3.69;100.00;97892.47;5016201;28;20280;-77
2020/12/04 04:31:16;;;;;;;8.63;5.60;;;5.30;99.90;;;3.77;100.00;97904.91;5027163;28;20279;-78
2020/12/04 04:34:02;;;;;;;7.43;5.87;;;5.30;99.90;;;3.76;100.00;97905.81;5025196;28;20268;-77
2020/12/04 04:36:50;;;;;;;8.50;6.13;;;5.30;99.90;;;3.76;100.00;97909.19;5026765;28;20204;-78
2020/12/04 04:39:36;;;;;;;8.00;5.93;;;5.30;99.90;;;3.78;100.00;97912.50;5029270;28;20220;-78
2020/12/04 04:42:21;;;;;;;7.73;5.57;;;5.30;99.90;;;3.83;100.00;97919.97;5027244;28;20224;-77
2020/12/04 04:45:08;;;;;;;8.53;5.87;;;5.30;99.90;;;3.81;100.00;97896.19;5027970;28;20235;-77
2020/12/04 04:47:56;;;;;;;6.87;5.23;;;5.30;99.90;;;3.93;100.00;97902.50;5029908;28;20276;-78
2020/12/04 04:50:51;;;;;;;8.47;4.93;;;5.30;99.90;;;3.94;100.00;97902.44;5029149;28;20290;-78
2020/12/04 04:53:42;;;;;;;8.70;5.90;;;5.30;99.90;;;3.91;100.00;97910.22;5024080;28;20223;-78
2020/12/04 04:56:28;;;;;;;6.80;5.23;;;5.30;99.90;;;3.96;100.00;97913.41;5032293;28;20231;-79
2020/12/04 04:59:13;;;;;;;7.97;5.40;;;5.40;99.90;;;3.96;100.00;97904.91;5025813;28;20222;-78
2020/12/04 05:01:59;;;;;;;8.47;5.50;;;5.40;99.90;;;3.92;100.00;97913.63;5012369;28;20251;-77
2020/12/04 05:04:52;;;;;;;7.63;5.93;;;5.40;99.90;;;3.79;100.00;97910.78;5018786;28;20204;-78
2020/12/04 05:07:42;;;;;;;6.90;4.50;;;5.40;99.90;;;3.70;100.00;97891.56;5018690;28;20209;-79
2020/12/04 05:10:27;;;;;;;7.97;5.60;;;5.40;99.90;;;3.68;100.00;97895.94;5024530;28;20247;-79
2020/12/04 05:13:17;;;;;;;7.07;4.60;;;5.40;99.90;;;3.59;100.00;97876.72;5011145;28;21035;-80
2020/12/04 05:16:03;;;;;;;5.80;5.03;;;5.40;99.90;;;3.72;100.00;97897.47;5007833;28;20281;-78
2020/12/04 05:18:48;;;;;;;6.10;4.50;;;5.40;99.90;;;3.78;100.00;97904.84;5022031;28;20207;-79
2020/12/04 05:21:34;;;;;;;6.87;4.90;;;5.40;99.90;;;3.75;100.00;97904.13;5007312;28;20228;-78
2020/12/04 05:24:26;;;;;;;7.23;5.23;;;5.40;99.90;;;3.89;100.00;97908.66;5021851;28;20297;-79
2020/12/04 05:27:26;;;;;;;7.67;5.07;;;5.40;99.90;;;4.01;100.00;97918.31;5022199;28;20759;-78
2020/12/04 05:30:23;;;;;;;7.67;5.00;;;5.40;99.90;;;3.87;100.00;97906.16;5017197;28;20207;-79
2020/12/04 05:33:09;;;;;;;6.67;4.70;;;5.40;99.90;;;3.76;100.00;97913.47;5020658;28;20231;-77
2020/12/04 05:35:54;;;;;;;5.83;4.87;;;5.40;99.90;;;3.82;100.00;97919.16;5021199;28;20224;-78
2020/12/04 05:38:56;;;;;;;7.00;4.77;;;5.40;99.90;;;3.75;100.00;97915.22;5027693;28;20213;-78
2020/12/04 05:41:50;;;;;;;6.93;5.47;;;5.40;99.90;;;3.86;100.00;97925.78;5026604;28;20687;-79
2020/12/04 05:44:54;;;;;;;5.47;4.23;;;5.40;99.90;;;3.93;100.00;97912.72;5020951;28;20215;-76
2020/12/04 05:47:41;;;;;;;4.17;3.73;;;5.50;99.90;;;3.99;100.00;97933.72;5020358;28;20200;-78
2020/12/04 05:50:27;;;;;;;5.80;4.43;;;5.40;99.90;;;4.00;100.00;97932.84;5015562;28;20305;-77
2020/12/04 05:53:12;;;;;;;7.10;5.37;;;5.40;99.90;;;3.97;100.00;97927.00;5022491;28;20239;-79
2020/12/04 05:55:59;;;;;;;7.43;4.60;;;5.40;99.90;;;4.05;100.00;97932.63;5029264;28;20216;-79
2020/12/04 05:58:53;;;;;;;7.03;5.20;;;5.40;99.90;;;4.01;100.00;97928.53;5031833;28;20252;-77
2020/12/04 06:01:45;;;;;;;7.20;4.23;;;5.40;99.90;;;3.91;100.00;97934.97;5020351;28;20228;-79
2020/12/04 06:04:30;;;;;;;7.77;5.43;;;5.50;99.90;;;3.75;100.00;97934.81;5014754;28;20203;-77
2020/12/04 06:07:24;;;;;;;5.30;4.40;;;5.50;99.90;;;3.95;100.00;97927.06;5022853;28;20208;-80
2020/12/04 06:10:12;;;;;;;6.87;4.73;;;5.50;99.90;;;3.98;100.00;97944.03;5017516;28;20204;-80
2020/12/04 06:12:58;;;;;;;6.23;4.27;;;5.50;99.90;;;4.12;100.00;97959.56;5018014;28;20299;-79
2020/12/04 06:15:44;;;;;;;6.33;4.17;;;5.50;99.90;;;4.04;100.00;97959.09;5017248;28;20279;-78
2020/12/04 06:18:29;;;;;;;4.47;3.47;;;5.50;99.90;;;3.91;100.00;97952.88;5018593;28;20200;-79
2020/12/04 06:21:15;;;;;;;6.57;4.20;;;5.50;99.90;;;3.97;100.00;97956.00;5019070;28;20698;-78
2020/12/04 06:24:07;;;;;;;8.63;5.13;;;5.50;99.90;;;4.02;100.00;97948.94;5017517;28;20304;-79
2020/12/04 06:26:52;;;;;;;7.50;4.60;;;5.50;99.90;;;4.10;100.00;97951.13;5007024;28;20208;-79
2020/12/04 06:29:54;;;;;;;5.97;4.37;;;5.50;99.90;;;4.40;100.00;97963.44;5017747;28;20267;-79
2020/12/04 06:32:44;;;;;;;5.27;3.97;;;5.50;99.90;;;4.47;100.00;97951.16;5017008;28;20238;-77
2020/12/04 06:35:42;;;;;;;6.33;4.03;;;5.50;99.90;;;4.56;100.00;97968.63;5007272;28;20279;-80
2020/12/04 06:38:45;;;;;;;4.83;4.13;;;5.60;99.90;;;4.53;100.00;97961.94;5020705;28;20206;-80
2020/12/04 06:41:35;;;;;;;6.73;4.47;;;5.60;99.90;;;4.35;100.00;97953.38;5020576;28;20219;-79
2020/12/04 06:44:21;;;;;;;6.23;4.30;;;5.70;99.90;;;4.29;100.00;97978.44;5017756;28;20207;-78
2020/12/04 06:47:15;;;;;;;4.17;3.30;;;5.70;99.90;;;4.27;100.00;97975.13;5036229;28;20192;-76
2020/12/04 06:50:01;;;;;;;4.77;3.77;;;5.80;99.90;;;4.36;100.00;97977.25;5022622;28;20681;-80
2020/12/04 06:52:47;;;;;;;4.20;3.30;;;5.70;99.90;;;4.45;100.00;97984.50;5015398;28;20299;-81
2020/12/04 06:55:32;;;;;;;5.20;4.20;;;5.70;99.90;;;4.47;100.00;97992.09;5015339;28;20211;-80
2020/12/04 06:58:17;;;;;;;4.30;3.67;;;5.80;99.90;;;4.54;100.00;97978.13;5015448;28;20204;-79
2020/12/04 07:01:02;;;;;;;6.03;3.63;;;5.80;99.90;;;4.64;100.00;97988.78;5016721;28;20204;-80
2020/12/04 07:03:50;;;;;;;4.10;3.60;;;5.80;99.90;;;4.77;100.00;97991.56;5016374;28;20342;-79
2020/12/04 07:06:35;;;;;;;4.07;3.30;;;5.90;99.90;;;4.66;100.00;98007.44;5015546;28;20207;-80
2020/12/04 07:09:20;;;;;;;5.40;3.23;;;5.90;99.90;;;4.79;100.00;97988.03;5016810;28;20262;-80
2020/12/04 07:12:10;;;;;;;5.83;3.67;;;5.90;99.90;;;4.76;100.00;97995.88;5015886;28;20208;-81
2020/12/04 07:14:58;;;;;;;4.23;3.30;;;6.00;99.90;;;4.76;100.00;97990.75;5015401;28;20357;-80
2020/12/04 07:17:43;;;;;;;4.73;3.70;;;6.00;99.90;;;4.90;100.00;97980.66;5014130;28;20566;-80
2020/12/04 07:20:32;;;;;;;4.87;3.70;;;6.10;99.90;;;4.92;100.00;98009.59;5016639;28;20210;-80
2020/12/04 07:23:20;;;;;;;4.40;3.60;;;6.10;99.90;;;4.90;100.00;98003.72;5014559;28;20296;-80
2020/12/04 07:26:14;;;;;;;4.17;3.27;;;6.10;99.90;;;4.95;100.00;98018.03;5015407;28;20212;-80
2020/12/04 07:28:59;;;;;;;5.43;3.27;;;6.20;99.90;;;4.94;100.00;98016.38;5016583;28;20224;-80
2020/12/04 07:31:47;;;;;;;4.87;3.80;;;6.20;99.90;;;4.98;100.00;98023.03;5013994;28;20228;-80
2020/12/04 07:34:36;;;;;;;5.23;3.20;;;6.30;99.90;;;5.02;100.00;98030.47;5010247;28;20216;-80
2020/12/04 07:37:27;;;;;;;3.60;2.97;;;6.30;99.90;;;4.94;100.00;98031.75;5012316;28;20212;-80
2020/12/04 07:40:17;;;;;;;4.63;2.87;;;6.30;99.90;;;4.99;100.00;98040.03;5012916;28;20259;-80
2020/12/04 07:43:03;;;;;;;3.33;2.73;;;6.40;99.90;;;5.00;100.00;98042.50;5011297;28;20244;-79
2020/12/04 07:45:57;;;;;;;3.10;2.57;;;6.40;99.90;;;4.87;100.00;98059.38;5012901;28;20571;-79
2020/12/04 07:49:04;;;;;;;2.47;2.27;;;6.40;99.90;;;4.68;100.00;98057.69;5015536;28;20328;-79
2020/12/04 07:51:51;;;;;;;4.73;2.93;;;6.40;99.90;;;4.82;100.00;98058.78;5015373;28;20203;-79
2020/12/04 07:54:37;;;;;;;5.17;3.40;;;6.50;99.90;;;4.72;100.00;98073.72;5014914;28;20339;-78
2020/12/04 07:57:30;;;;;;;4.53;3.03;;;6.50;99.90;;;4.95;100.00;98082.91;5017927;28;20203;-78
2020/12/04 08:00:16;;;;;;;4.07;2.77;;;6.40;99.90;;;5.17;100.00;98103.22;5016241;28;20207;-79
2020/12/04 08:03:03;;;;;;;4.43;3.03;;;6.40;99.90;;;5.17;100.00;98113.47;5013545;28;20230;-80
2020/12/04 08:05:48;;;;;;;3.10;2.70;;;6.40;99.90;;;5.14;100.00;98111.06;5012010;28;20955;-79
2020/12/04 08:08:34;;;;;;;3.60;2.40;;;6.50;99.90;;;5.18;100.00;98127.09;5009918;28;20786;-79
2020/12/04 08:11:19;;;;;;;2.77;2.47;;;6.50;99.90;;;5.33;100.00;98141.78;5013220;28;20204;-78
2020/12/04 08:14:06;;;;;;;3.67;2.77;;;6.50;99.90;;;5.26;100.00;98146.34;5015910;28;20236;-79
2020/12/04 08:16:56;;;;;;;3.83;2.43;;;6.60;99.90;;;5.34;100.00;98151.09;5017084;28;20215;-79
2020/12/04 08:19:41;;;;;;;3.93;2.63;;;6.60;99.90;;;5.38;100.00;98151.81;5018062;28;20259;-78
2020/12/04 08:22:28;;;;;;;3.70;2.00;;;6.60;99.90;;;5.38;100.00;98154.38;5016200;28;20223;-80
2020/12/04 08:25:13;;;;;;;2.63;2.33;;;6.70;99.90;;;5.51;100.00;98152.88;5016300;28;20226;-79
2020/12/04 08:28:00;;;;;;;2.80;2.17;;;6.70;99.90;;;5.56;100.00;98160.34;5018905;28;20208;-78
2020/12/04 08:30:46;;;;;;;3.27;2.00;;;6.70;99.90;;;5.61;100.00;98153.28;5015570;28;20695;-79
2020/12/04 08:33:40;;;;;;;2.00;1.80;;;6.80;99.90;;;5.53;100.00;98158.75;5014446;28;20228;-78
2020/12/04 08:36:26;;;;;;;3.20;2.27;;;6.80;99.90;;;5.56;100.00;98163.72;5015563;28;20216;-79
2020/12/04 08:39:10;;;;;;;2.20;1.33;;;6.90;99.90;;;5.49;100.00;98167.47;5017460;28;20289;-79
2020/12/04 08:41:55;;;;;;;4.50;1.50;;;6.90;99.90;;;5.52;100.00;98156.25;5014581;28;20207;-79
2020/12/04 08:44:41;;;;;;;1.40;1.30;;;6.90;99.90;;;5.47;100.00;98158.22;5013930;28;20263;-80
2020/12/04 08:47:35;;;;;;;1.93;1.07;;;7.00;99.90;;;5.72;100.00;98158.69;5013706;28;20211;-79
2020/12/04 08:50:23;;;;;;;2.03;1.47;;;7.00;99.90;;;5.67;100.00;98154.69;5010318;28;20217;-81
2020/12/04 08:53:10;;;;;;;2.77;1.07;;;7.00;99.90;;;5.46;100.00;98162.50;5013082;28;20244;-81
2020/12/04 08:55:57;;;;;;;1.63;1.00;;;7.00;99.90;;;5.45;100.00;98171.13;5013412;28;20220;-79
2020/12/04 08:58:43;;;;;;;2.00;1.13;;;7.10;99.90;;;5.48;100.00;98165.84;5010995;28;20576;-79
2020/12/04 09:01:28;;;;;;;2.83;1.30;;;7.10;99.90;;;5.52;100.00;98167.38;5010802;28;20212;-78
2020/12/04 09:04:14;;;;;;;3.10;1.50;;;7.10;99.90;;;6.61;100.00;98161.06;5013034;28;20236;-79
2020/12/04 09:06:59;;;;;;;2.23;1.50;;;7.10;99.90;;;7.16;100.00;98179.59;5009485;28;20945;-81
2020/12/04 09:09:44;;;;;;;5.37;1.40;;;7.10;99.90;;;6.91;100.00;98190.38;5011359;28;20243;-81
2020/12/04 09:12:31;;;;;;;2.00;1.50;;;7.20;99.90;;;6.59;100.00;98200.63;5012384;28;20228;-80
2020/12/04 09:15:18;;;;;;;1.60;1.30;;;7.40;99.90;;;6.42;100.00;98204.88;5014255;28;20211;-80
2020/12/04 09:18:05;;;;;;;1.73;1.53;;;7.50;99.90;;;6.33;100.00;98202.75;5011143;28;20219;-77
2020/12/04 09:20:51;;;;;;;3.33;1.60;;;7.70;99.90;;;6.56;100.00;98205.91;5031135;28;20215;-79
2020/12/04 09:23:38;;;;;;;2.43;1.67;;;7.80;99.90;;;6.84;100.00;98200.97;5015500;28;20232;-80
2020/12/04 09:26:22;;;;;;;2.23;1.70;;;7.90;99.90;;;6.78;100.00;98206.44;5013714;28;20215;-80
2020/12/04 09:29:08;;;;;;;1.87;1.57;;;8.00;99.90;;;6.57;100.00;98223.81;5015957;28;20653;-79
2020/12/04 09:31:55;;;;;;;1.53;1.37;;;8.10;99.90;;;6.48;100.00;98224.25;5012396;28;20212;-80
2020/12/04 09:34:43;;;;;;;2.90;1.23;;;8.20;99.90;;;6.42;100.00;98216.88;5002147;28;20327;-82
2020/12/04 09:37:31;;;;;;;2.27;1.10;;;8.30;99.90;;;6.42;100.00;98224.56;5018283;28;20228;-82
2020/12/04 09:40:19;;;;;;;1.90;1.40;;;8.40;99.90;;;6.57;100.00;98226.38;5006398;28;20212;-81
2020/12/04 09:43:04;;;;;;;1.63;0.90;;;8.40;99.90;;;6.70;100.00;98241.97;5021116;28;20581;-80
2020/12/04 09:45:49;;;;;;;1.60;1.20;;;8.40;99.90;;;6.82;100.00;98248.22;5020243;28;20228;-84
2020/12/04 09:48:34;;;;;;;2.43;1.00;;;8.50;99.90;;;6.85;100.00;98254.03;5020169;28;20227;-81
2020/12/04 09:51:19;;;;;;;2.47;1.30;;;8.40;99.90;;;6.91;100.00;98270.03;5021252;28;20211;-80
2020/12/04 09:54:05;;;;;;;1.33;1.00;;;8.60;99.90;;;6.92;100.00;98271.72;5010186;28;20223;-81
2020/12/04 09:56:53;;;;;;;1.53;0.87;;;8.50;99.90;;;6.94;100.00;98283.56;5013390;28;20688;-82
2020/12/04 09:59:40;;;;;;;0.60;0.60;;;8.60;99.90;;;7.06;100.00;98276.13;5013829;28;20303;-83
2020/12/04 10:02:25;;;;;;;0.93;0.80;;;8.60;99.90;;;7.15;100.00;98278.22;5011580;28;20304;-81
2020/12/04 10:05:12;;;;;;;1.23;0.77;;;8.60;99.90;;;7.03;100.00;98279.69;5002119;28;20763;-80
2020/12/04 10:07:57;;;;;;;0.97;0.80;;;8.70;99.90;;;7.02;100.00;98286.56;5013145;28;20256;-80
2020/12/04 10:10:43;;;;;;;0.80;0.80;;;8.70;99.90;;;6.94;100.00;98288.72;5014265;28;20208;-83
2020/12/04 10:13:28;;;;;;;1.33;0.80;;;8.70;99.90;;;7.09;100.00;98286.25;5012116;28;20244;-78
2020/12/04 10:16:13;;;;;;;1.47;0.90;;;8.70;99.90;;;7.15;100.00;98315.03;5017148;28;20869;-81
2020/12/04 10:18:59;;;;;;;1.67;0.90;;;8.80;99.90;;;7.15;100.00;98311.66;5015702;28;20684;-81
2020/12/04 10:21:46;;;;;;;1.10;0.80;;;8.80;99.90;;;7.37;100.00;98322.47;5009464;28;20211;-79
2020/12/04 10:24:31;;;;;;;3.23;0.90;;;8.90;99.90;;;6.98;100.00;98326.22;5013030;28;20244;-78
2020/12/04 10:27:17;;;;;;;0.70;0.70;;;8.90;99.90;;;7.09;100.00;98324.81;5017293;28;20803;-82
2020/12/04 10:30:03;;;;;;;1.57;0.90;;;8.90;99.90;;;7.37;100.00;98322.47;5016411;28;20734;-80
2020/12/04 10:32:49;;;;;;;1.33;0.80;;;8.90;99.90;;;7.99;100.00;98320.91;5015829;28;20243;-82
2020/12/04 10:35:34;;;;;;;0.90;0.60;;;9.00;99.90;;;7.85;100.00;98326.78;5014201;28;20263;-79
2020/12/04 10:38:19;;;;;;;0.70;0.70;;;9.10;99.90;;;8.83;100.00;98328.16;5014196;28;20692;-81
2020/12/04 10:41:05;;;;;;;0.80;0.80;;;9.20;99.90;;;9.78;100.00;98321.53;5014603;28;20216;-81
2020/12/04 10:43:51;;;;;;;1.87;0.70;;;9.30;99.90;;;8.59;100.00;98315.78;5019028;28;20302;-82
2020/12/04 10:46:38;;;;;;;1.77;0.77;;;9.50;99.90;;;7.86;100.00;98333.59;5014477;28;20231;-80
2020/12/04 10:49:23;;;;;;;0.97;0.67;;;9.70;99.90;;;7.51;100.00;98338.91;5010574;28;20232;-80
2020/12/04 10:52:08;;;;;;;0.97;0.70;;;9.90;99.90;;;7.94;100.00;98335.75;5007550;28;20625;-80
2020/12/04 10:54:54;;;;;;;0.77;0.70;;;10.00;99.90;;;7.67;100.00;98339.72;5013257;28;20286;-82
2020/12/04 10:57:39;;;;;;;1.63;0.80;;;10.10;99.90;;;7.56;100.00;98342.06;5013530;28;20703;-82
2020/12/04 11:00:25;;;;;;;0.97;0.70;;;10.10;99.90;;;7.57;100.00;98341.13;5014063;28;20215;-82
2020/12/04 11:03:15;;;;;;;1.13;0.60;;;10.10;99.90;;;7.38;100.00;98349.84;5016176;28;20240;-80
2020/12/04 11:06:00;;;;;;;0.60;0.60;;;10.10;99.90;;;7.29;100.00;98346.91;5006933;28;20216;-80
2020/12/04 11:08:46;;;;;;;1.63;0.70;;;10.20;99.90;;;7.45;100.00;98342.63;5013983;28;20224;-81
2020/12/04 11:11:31;;;;;;;0.90;0.80;;;10.10;99.90;;;8.74;100.00;98338.97;5002938;28;20223;-80
2020/12/04 11:14:17;;;;;;;2.03;1.00;;;10.10;99.90;;;9.25;100.00;98347.13;5011104;28;20216;-80
2020/12/04 11:17:03;;;;;;;1.57;0.90;;;10.10;99.90;;;10.56;100.00;98356.25;5014335;28;20374;-78
2020/12/04 11:19:48;;;;;;;0.70;0.70;;;10.20;99.90;;;10.40;100.00;98371.91;5013037;28;20216;-78
2020/12/04 11:22:36;;;;;;;0.83;0.80;;;10.30;99.90;;;9.79;100.00;98355.94;5016780;28;20502;-79
2020/12/04 11:25:22;;;;;;;0.80;0.60;;;10.60;99.90;;;8.75;100.00;98359.53;5017698;28;20216;-80
2020/12/04 11:28:08;;;;;;;1.57;0.70;;;10.80;99.90;;;7.97;100.00;98359.59;5018517;28;20212;-81
2020/12/04 11:30:53;;;;;;;1.47;0.60;;;11.00;99.90;;;7.40;100.00;98377.19;5016281;28;20212;-79
2020/12/04 11:33:39;;;;;;;0.87;0.80;;;11.10;99.90;;;7.39;100.00;98376.38;5017105;28;20239;-80
2020/12/04 11:36:24;;;;;;;1.43;0.93;;;11.10;99.90;;;7.48;100.00;98373.31;5003736;28;20217;-81
2020/12/04 11:39:09;;;;;;;0.60;0.60;;;11.10;99.90;;;7.55;100.00;98386.72;5015731;28;20212;-80
2020/12/04 11:41:55;;;;;;;0.70;0.70;;;11.10;99.90;;;7.35;100.00;98386.00;5017835;28;20223;-80
2020/12/04 11:44:42;;;;;;;2.87;0.90;;;11.00;99.90;;;7.27;100.00;98379.59;5010863;28;20219;-81